This is the latest recevied weather packets stored in our database for station/object AA0PB. If no packets are shown the sender has not sent any weather packets the latest 10 day(s).
| Time | Temp. | Humidity | Pressure | Rain* | Wind** | Luminosity | Snow |
|---|---|---|---|---|---|---|---|
| 1777759931 | 21.67° C | 61% | 1013.4 hPa | 0 mm | - | 486 W/m² | - |
| 1777759627 | 21.11° C | 62% | 1013.6 hPa | 0 mm | - | 610 W/m² | - |
| 1777759324 | 21.11° C | 61% | 1013.6 hPa | 0 mm | - | 635 W/m² | - |
| 1777759021 | 20.56° C | 62% | 1013.8 hPa | 0 mm | - | 638 W/m² | - |
| 1777758717 | 21.11° C | 60% | 1013.8 hPa | 0 mm | - | 649 W/m² | - |
| 1777758415 | 21.67° C | 58% | 1013.9 hPa | 0 mm | - | 651 W/m² | - |
| 1777758112 | 20.56° C | 62% | 1013.8 hPa | 0 mm | - | 678 W/m² | - |
| 1777757809 | 19.44° C | 67% | 1014 hPa | 0 mm | - | 686 W/m² | - |
| 1777757506 | 21.11° C | 63% | 1013.9 hPa | 0 mm | - | 637 W/m² | - |
| 1777757205 | 20° C | 63% | 1014.2 hPa | 0 mm | - | 691 W/m² | - |
| 1777756903 | 20° C | 64% | 1014.3 hPa | 0 mm | - | 570 W/m² | - |
| 1777756598 | 19.44° C | 66% | 1014.4 hPa | 0 mm | - | 581 W/m² | - |
| 1777756295 | 18.89° C | 69% | 1014.5 hPa | 0 mm | - | 586 W/m² | - |
| 1777755993 | 18.89° C | 68% | 1014.6 hPa | 0 mm | - | 580 W/m² | - |
| 1777755690 | 18.89° C | 66% | 1014.6 hPa | 0 mm | - | 530 W/m² | - |
| 1777755387 | 18.33° C | 68% | 1014.5 hPa | 0 mm | - | 577 W/m² | - |
| 1777755083 | 17.78° C | 70% | 1014.5 hPa | 0 mm | - | 388 W/m² | - |
| 1777754780 | 18.89° C | 68% | 1014.9 hPa | 0 mm | - | 641 W/m² | - |
| 1777754478 | 18.89° C | 67% | 1014.7 hPa | 0 mm | - | 566 W/m² | - |
| 1777754175 | 17.78° C | 68% | 1014.9 hPa | 0 mm | - | 498 W/m² | - |
| 1777753873 | 18.89° C | 66% | 1014.9 hPa | 0 mm | - | 608 W/m² | - |
| 1777753568 | 18.33° C | 68% | 1015.1 hPa | 0 mm | - | 686 W/m² | - |
| 1777753266 | 17.78° C | 71% | 1015 hPa | 0 mm | - | 685 W/m² | - |
| 1777752962 | 17.22° C | 71% | 1015.2 hPa | 0 mm | - | 617 W/m² | - |
| 1777752659 | 17.22° C | 68% | 1015.2 hPa | 0 mm | - | 733 W/m² | - |
* Rain latest hour (hover to see other rain measurements)
** Current wind speed in m/s (hover to see current wind gust speed)